createdAt,value
2022-12-08T04:19:16.967Z,100056.69
2022-12-08T04:22:19.396Z,100056.69
2022-12-08T04:25:21.488Z,100053.50
2022-12-08T04:28:23.819Z,100048.75
2022-12-08T04:31:26.062Z,100043.50
2022-12-08T04:34:28.452Z,100047.25
2022-12-08T04:37:30.564Z,100042.25
2022-12-08T04:40:33.561Z,100055.50
2022-12-08T04:43:36.693Z,100055.38
2022-12-08T04:46:43.210Z,100057.22
2022-12-08T04:49:45.773Z,100057.66
2022-12-08T04:52:48.128Z,100047.97
2022-12-08T04:55:50.277Z,100051.16
2022-12-08T04:58:52.846Z,100053.31
2022-12-08T05:01:55.018Z,100049.84
2022-12-08T05:04:57.517Z,100052.03
2022-12-08T05:07:59.687Z,100059.22
2022-12-08T05:11:03.781Z,100057.91
2022-12-08T05:14:05.875Z,100054.16
2022-12-08T05:17:09.825Z,100055.50
2022-12-08T05:20:12.562Z,100052.81
2022-12-08T05:23:15.119Z,100059.38
2022-12-08T05:26:17.277Z,100058.81
2022-12-08T05:29:19.626Z,100064.50
2022-12-08T05:32:21.752Z,100066.06
2022-12-08T05:35:24.141Z,100045.53
2022-12-08T05:38:26.256Z,100055.31
2022-12-08T05:41:28.786Z,100045.44
2022-12-08T05:44:30.881Z,100041.84
2022-12-08T05:47:36.234Z,100033.09
2022-12-08T05:50:38.581Z,100027.72
2022-12-08T05:53:40.898Z,100038.00
2022-12-08T05:56:43.028Z,100042.59
2022-12-08T05:59:45.459Z,100048.38
2022-12-08T06:02:47.725Z,100042.97
2022-12-08T06:05:50.528Z,100040.72
2022-12-08T06:08:53.316Z,100043.91
2022-12-08T06:11:55.712Z,100042.88
2022-12-08T06:14:57.753Z,100050.19
2022-12-08T06:18:00.126Z,100054.31
2022-12-08T06:21:13.413Z,100059.06
2022-12-08T06:24:16.228Z,100058.16
2022-12-08T06:27:18.268Z,100058.81
2022-12-08T06:30:20.646Z,100060.34
2022-12-08T06:33:22.927Z,100052.91
2022-12-08T06:36:27.820Z,100059.03
2022-12-08T06:39:29.949Z,100066.00
2022-12-08T06:42:44.618Z,100069.59
2022-12-08T06:45:46.793Z,100065.75
2022-12-08T06:48:50.691Z,100061.47
2022-12-08T06:51:52.794Z,100068.94
2022-12-08T06:54:55.108Z,100070.63
2022-12-08T06:57:57.304Z,100069.19
2022-12-08T07:01:05.619Z,100073.03
2022-12-08T07:04:07.923Z,100066.97
2022-12-08T07:07:10.318Z,100065.41
2022-12-08T07:10:12.656Z,100060.25
2022-12-08T07:13:15.032Z,100059.59
2022-12-08T07:16:17.204Z,100060.31
2022-12-08T07:19:19.921Z,100064.53
2022-12-08T07:22:22.027Z,100061.88
2022-12-08T07:25:24.410Z,100057.06
2022-12-08T07:28:26.482Z,100062.81
2022-12-08T07:31:28.995Z,100054.56
2022-12-08T07:34:31.215Z,100057.28
2022-12-08T07:37:34.902Z,100056.50
2022-12-08T07:40:38.669Z,100052.38
2022-12-08T07:43:42.521Z,100050.03
2022-12-08T07:46:44.646Z,100055.28
2022-12-08T07:49:47.091Z,100053.69
2022-12-08T07:52:49.184Z,100040.81
2022-12-08T07:55:51.560Z,100047.34
2022-12-08T07:58:53.703Z,100037.13
2022-12-08T08:02:13.416Z,100041.97
2022-12-08T08:05:18.555Z,100048.47
2022-12-08T08:08:20.824Z,100048.25
2022-12-08T08:11:24.284Z,100052.19
2022-12-08T08:14:26.359Z,100042.38
2022-12-08T08:17:29.747Z,100035.84
2022-12-08T08:20:32.161Z,100047.22
2022-12-08T08:23:34.979Z,100046.87
2022-12-08T08:26:37.754Z,100039.47
2022-12-08T08:29:40.101Z,100038.25
2022-12-08T08:32:42.729Z,100030.97
2022-12-08T08:35:45.057Z,100030.28
2022-12-08T08:38:47.166Z,100032.84
2022-12-08T08:41:49.691Z,100042.47
2022-12-08T08:44:51.791Z,100036.59
2022-12-08T08:47:54.311Z,100027.63
2022-12-08T08:50:57.190Z,100021.47
2022-12-08T08:53:59.684Z,100027.31
2022-12-08T08:57:01.919Z,100038.09
2022-12-08T09:00:06.486Z,100026.63
2022-12-08T09:03:08.710Z,100017.63
2022-12-08T09:06:11.726Z,100020.25
2022-12-08T09:09:14.529Z,100021.09
2022-12-08T09:12:17.093Z,100022.97
2022-12-08T09:15:20.684Z,100031.28
2022-12-08T09:18:23.052Z,100023.87
2022-12-08T09:21:26.367Z,100003.63
2022-12-08T09:24:28.729Z,99999.69
2022-12-08T09:27:31.207Z,100019.38
2022-12-08T09:30:33.582Z,100020.88
2022-12-08T09:33:35.765Z,100023.94
2022-12-08T09:36:38.378Z,100022.84
2022-12-08T09:39:40.544Z,100016.34
2022-12-08T09:42:51.282Z,100016.34
2022-12-08T09:45:55.043Z,100010.94
2022-12-08T09:49:00.157Z,99994.66
2022-12-08T09:52:03.029Z,99977.06
2022-12-08T09:55:16.623Z,99978.47
2022-12-08T09:58:47.668Z,99973.72
2022-12-08T10:01:50.937Z,99964.81
2022-12-08T10:04:55.738Z,99976.94
2022-12-08T10:08:25.068Z,99974.28
2022-12-08T10:11:44.516Z,99970.78
2022-12-08T10:15:17.413Z,99987.97
2022-12-08T10:18:24.979Z,99976.78
2022-12-08T10:21:30.195Z,99977.50
2022-12-08T10:24:41.145Z,99975.59
2022-12-08T10:27:43.436Z,99964.44
2022-12-08T10:30:45.768Z,99968.00
2022-12-08T10:33:54.557Z,99961.13
2022-12-08T10:36:59.168Z,99958.31
2022-12-08T10:40:17.736Z,99944.28
2022-12-08T10:43:25.577Z,99934.44
2022-12-08T10:46:29.119Z,99929.84
2022-12-08T10:49:35.917Z,99932.53
2022-12-08T10:52:40.240Z,99932.00
2022-12-08T10:56:05.621Z,99918.84
2022-12-08T10:59:17.237Z,99913.38
2022-12-08T11:02:20.421Z,99907.97
2022-12-08T11:05:25.985Z,99903.00
2022-12-08T11:08:29.720Z,99901.94
2022-12-08T11:11:44.961Z,99896.88
2022-12-08T11:14:57.183Z,99888.00
2022-12-08T11:18:28.413Z,99882.00
2022-12-08T11:21:37.182Z,99880.16
2022-12-08T11:24:39.264Z,99883.88
2022-12-08T11:27:44.943Z,99867.09
2022-12-08T11:30:54.722Z,99864.66
2022-12-08T11:33:57.547Z,99853.19
2022-12-08T11:36:59.782Z,99840.53
2022-12-08T11:40:07.877Z,99827.72
2022-12-08T11:43:39.019Z,99814.78
2022-12-08T11:46:50.745Z,99816.56
2022-12-08T11:50:18.045Z,99818.56
2022-12-08T11:53:37.219Z,99816.88
2022-12-08T11:56:44.682Z,99817.37
2022-12-08T11:59:51.975Z,99814.91
2022-12-08T12:03:07.592Z,99814.00
2022-12-08T12:10:22.482Z,99813.19
2022-12-08T12:13:53.452Z,99811.81
2022-12-08T12:17:07.720Z,99811.22
2022-12-08T12:20:27.859Z,99809.72
2022-12-08T12:23:38.444Z,99806.72
2022-12-08T12:26:53.776Z,99803.06
2022-12-08T12:30:01.789Z,99809.63
2022-12-08T12:33:08.650Z,99811.41
2022-12-08T12:36:12.613Z,99810.13
2022-12-08T12:39:18.176Z,99815.75
2022-12-08T12:42:49.173Z,99819.31
2022-12-08T12:46:23.790Z,99819.56
2022-12-08T12:49:43.547Z,99815.66
2022-12-08T12:52:47.021Z,99809.28
2022-12-08T12:55:53.848Z,99802.78
2022-12-08T12:58:56.230Z,99792.25
2022-12-08T13:01:58.501Z,99784.62
2022-12-08T13:05:15.707Z,99790.22
2022-12-08T13:08:23.841Z,99791.44
2022-12-08T13:11:26.454Z,99797.38
2022-12-08T13:14:35.166Z,99789.34
2022-12-08T13:17:38.508Z,99780.72
2022-12-08T13:20:46.060Z,99780.50
2022-12-08T13:24:14.182Z,99765.50
2022-12-08T13:27:16.179Z,99769.41
2022-12-08T13:30:48.096Z,99765.81
2022-12-08T13:33:50.777Z,99764.53
2022-12-08T13:37:13.847Z,99765.81
2022-12-08T13:40:24.031Z,99778.16
2022-12-08T13:43:45.079Z,99777.84
2022-12-08T13:47:17.254Z,99784.91
2022-12-08T13:57:16.934Z,99774.03
2022-12-08T14:00:21.402Z,99772.31
2022-12-08T14:03:23.960Z,99768.62
2022-12-08T14:06:30.797Z,99771.78
2022-12-08T14:09:37.203Z,99768.41
2022-12-08T14:12:43.372Z,99769.44
2022-12-08T14:15:45.813Z,99770.75
2022-12-08T14:18:51.118Z,99771.22
2022-12-08T14:22:18.680Z,99768.31
2022-12-08T14:25:22.729Z,99770.00
2022-12-08T14:28:25.619Z,99782.69
2022-12-08T14:31:28.867Z,99776.19
2022-12-08T14:34:40.327Z,99781.13
2022-12-08T14:37:44.592Z,99788.41
2022-12-08T14:40:49.931Z,99785.84
2022-12-08T14:44:01.048Z,99786.19
2022-12-08T14:47:09.301Z,99779.66
2022-12-08T14:50:36.102Z,99786.53
2022-12-08T14:53:43.236Z,99788.34
2022-12-08T14:56:53.161Z,99783.94
2022-12-08T14:59:55.583Z,99778.03
2022-12-08T15:02:57.838Z,99776.31
2022-12-08T15:06:06.632Z,99775.53
2022-12-08T15:09:27.092Z,99771.28
2022-12-08T15:12:31.799Z,99778.03
2022-12-08T15:15:57.951Z,99774.28
2022-12-08T15:19:27.787Z,99761.66
2022-12-08T15:22:31.075Z,99763.44
2022-12-08T15:25:33.790Z,99770.28
2022-12-08T15:28:35.910Z,99768.19
2022-12-08T15:31:38.557Z,99772.87
2022-12-08T15:34:40.787Z,99769.06
2022-12-08T15:37:43.133Z,99763.56
2022-12-08T15:40:45.188Z,99753.94
2022-12-08T15:43:47.524Z,99763.78
2022-12-08T15:46:50.104Z,99747.84
2022-12-08T15:49:53.043Z,99748.09
2022-12-08T15:52:55.159Z,99743.69
2022-12-08T15:56:26.373Z,99747.97
2022-12-08T15:59:23.490Z,99741.34
2022-12-08T16:02:34.330Z,99739.69
2022-12-08T16:06:10.187Z,99744.16
2022-12-08T16:09:30.091Z,99743.69
2022-12-08T16:16:13.849Z,99766.56
2022-12-08T16:19:16.336Z,99767.66
